sensor_id;sensor_type;location;lat;lon;timestamp;pressure;altitude;pressure_sealevel;temperature;humidity
72061;BME280;59925;52.136;5.420;2023-12-29T00:01:30;100727.09;;;9.55;100.00
72061;BME280;59925;52.136;5.420;2023-12-29T00:03:57;100726.56;;;9.58;100.00
72061;BME280;59925;52.136;5.420;2023-12-29T00:06:24;100729.25;;;9.63;100.00
72061;BME280;59925;52.136;5.420;2023-12-29T00:08:51;100733.78;;;9.63;100.00
72061;BME280;59925;52.136;5.420;2023-12-29T00:11:19;100728.47;;;9.68;100.00
72061;BME280;59925;52.136;5.420;2023-12-29T00:13:46;100708.66;;;9.69;100.00
72061;BME280;59925;52.136;5.420;2023-12-29T00:16:14;100727.13;;;9.71;100.00
72061;BME280;59925;52.136;5.420;2023-12-29T00:18:41;100710.78;;;9.57;100.00
72061;BME280;59925;52.136;5.420;2023-12-29T00:21:07;100732.69;;;9.43;100.00
72061;BME280;59925;52.136;5.420;2023-12-29T00:23:34;100717.66;;;9.27;100.00
72061;BME280;59925;52.136;5.420;2023-12-29T00:26:01;100740.06;;;9.10;100.00
72061;BME280;59925;52.136;5.420;2023-12-29T00:28:27;100721.59;;;8.98;100.00
72061;BME280;59925;52.136;5.420;2023-12-29T00:30:54;100720.78;;;8.93;100.00
72061;BME280;59925;52.136;5.420;2023-12-29T00:33:28;100723.69;;;8.91;100.00
72061;BME280;59925;52.136;5.420;2023-12-29T00:35:55;100700.13;;;8.88;100.00
72061;BME280;59925;52.136;5.420;2023-12-29T00:38:22;100716.47;;;8.92;100.00
72061;BME280;59925;52.136;5.420;2023-12-29T00:40:49;100718.38;;;8.96;100.00
72061;BME280;59925;52.136;5.420;2023-12-29T00:43:15;100713.56;;;9.03;100.00
72061;BME280;59925;52.136;5.420;2023-12-29T00:45:44;100718.13;;;9.08;100.00
72061;BME280;59925;52.136;5.420;2023-12-29T00:48:11;100696.75;;;9.13;100.00
72061;BME280;59925;52.136;5.420;2023-12-29T00:50:37;100690.91;;;9.16;100.00
72061;BME280;59925;52.136;5.420;2023-12-29T00:53:04;100681.81;;;9.17;100.00
72061;BME280;59925;52.136;5.420;2023-12-29T00:55:31;100693.84;;;9.20;100.00
72061;BME280;59925;52.136;5.420;2023-12-29T00:57:57;100691.47;;;9.29;100.00
72061;BME280;59925;52.136;5.420;2023-12-29T01:00:24;100701.63;;;9.37;100.00
72061;BME280;59925;52.136;5.420;2023-12-29T01:02:51;100709.13;;;9.40;100.00
72061;BME280;59925;52.136;5.420;2023-12-29T01:05:17;100698.19;;;9.47;100.00
72061;BME280;59925;52.136;5.420;2023-12-29T01:07:44;100692.31;;;9.50;100.00
72061;BME280;59925;52.136;5.420;2023-12-29T01:10:11;100693.38;;;9.49;100.00
72061;BME280;59925;52.136;5.420;2023-12-29T01:12:38;100715.31;;;9.51;100.00
72061;BME280;59925;52.136;5.420;2023-12-29T01:15:05;100684.03;;;9.57;100.00
72061;BME280;59925;52.136;5.420;2023-12-29T01:17:32;100700.88;;;9.57;100.00
72061;BME280;59925;52.136;5.420;2023-12-29T01:19:58;100703.53;;;9.57;100.00
72061;BME280;59925;52.136;5.420;2023-12-29T01:22:25;100701.38;;;9.54;100.00
72061;BME280;59925;52.136;5.420;2023-12-29T01:24:52;100676.50;;;9.54;100.00
72061;BME280;59925;52.136;5.420;2023-12-29T01:27:19;100681.34;;;9.57;100.00
72061;BME280;59925;52.136;5.420;2023-12-29T01:29:45;100691.78;;;9.58;100.00
72061;BME280;59925;52.136;5.420;2023-12-29T01:32:12;100705.94;;;9.54;100.00
72061;BME280;59925;52.136;5.420;2023-12-29T01:34:39;100684.81;;;9.52;100.00
72061;BME280;59925;52.136;5.420;2023-12-29T01:37:06;100675.72;;;9.48;100.00
72061;BME280;59925;52.136;5.420;2023-12-29T01:39:33;100666.09;;;9.52;100.00
72061;BME280;59925;52.136;5.420;2023-12-29T01:42:01;100656.16;;;9.53;100.00
72061;BME280;59925;52.136;5.420;2023-12-29T01:44:28;100677.59;;;9.53;100.00
72061;BME280;59925;52.136;5.420;2023-12-29T01:46:58;100679.72;;;9.50;100.00
72061;BME280;59925;52.136;5.420;2023-12-29T01:49:25;100671.44;;;9.52;100.00
72061;BME280;59925;52.136;5.420;2023-12-29T01:51:57;100682.66;;;9.54;100.00
72061;BME280;59925;52.136;5.420;2023-12-29T01:54:27;100688.81;;;9.49;100.00
72061;BME280;59925;52.136;5.420;2023-12-29T01:56:56;100681.06;;;9.48;100.00
72061;BME280;59925;52.136;5.420;2023-12-29T01:59:25;100686.41;;;9.48;100.00
72061;BME280;59925;52.136;5.420;2023-12-29T02:01:56;100672.75;;;9.49;100.00
72061;BME280;59925;52.136;5.420;2023-12-29T02:04:27;100692.31;;;9.50;100.00
72061;BME280;59925;52.136;5.420;2023-12-29T02:06:54;100689.63;;;9.50;100.00
72061;BME280;59925;52.136;5.420;2023-12-29T02:09:22;100662.59;;;9.51;100.00
72061;BME280;59925;52.136;5.420;2023-12-29T02:11:48;100684.25;;;9.55;100.00
72061;BME280;59925;52.136;5.420;2023-12-29T02:14:16;100695.53;;;9.52;100.00
72061;BME280;59925;52.136;5.420;2023-12-29T02:16:58;100703.56;;;9.52;100.00
72061;BME280;59925;52.136;5.420;2023-12-29T02:19:40;100684.28;;;9.50;100.00
72061;BME280;59925;52.136;5.420;2023-12-29T02:22:08;100684.81;;;9.47;100.00
72061;BME280;59925;52.136;5.420;2023-12-29T02:24:35;100686.94;;;9.50;100.00
72061;BME280;59925;52.136;5.420;2023-12-29T02:27:31;100703.78;;;9.50;100.00
72061;BME280;59925;52.136;5.420;2023-12-29T02:30:09;100702.19;;;9.49;100.00
72061;BME280;59925;52.136;5.420;2023-12-29T02:32:42;100706.75;;;9.49;100.00
72061;BME280;59925;52.136;5.420;2023-12-29T02:35:12;100703.81;;;9.45;100.00
72061;BME280;59925;52.136;5.420;2023-12-29T02:37:40;100689.06;;;9.43;100.00
72061;BME280;59925;52.136;5.420;2023-12-29T02:40:08;100694.69;;;9.41;100.00
72061;BME280;59925;52.136;5.420;2023-12-29T02:42:35;100700.28;;;9.40;100.00
72061;BME280;59925;52.136;5.420;2023-12-29T02:45:02;100688.78;;;9.34;100.00
72061;BME280;59925;52.136;5.420;2023-12-29T02:47:29;100703.75;;;9.35;100.00
72061;BME280;59925;52.136;5.420;2023-12-29T02:49:56;100690.66;;;9.33;100.00
72061;BME280;59925;52.136;5.420;2023-12-29T02:52:22;100699.75;;;9.32;100.00
72061;BME280;59925;52.136;5.420;2023-12-29T02:54:49;100684.50;;;9.28;100.00
72061;BME280;59925;52.136;5.420;2023-12-29T02:57:15;100694.66;;;9.26;100.00
72061;BME280;59925;52.136;5.420;2023-12-29T02:59:42;100680.47;;;9.20;100.00
72061;BME280;59925;52.136;5.420;2023-12-29T03:02:09;100696.50;;;9.15;100.00
72061;BME280;59925;52.136;5.420;2023-12-29T03:04:35;100693.53;;;9.11;100.00
72061;BME280;59925;52.136;5.420;2023-12-29T03:07:02;100695.66;;;9.09;100.00
72061;BME280;59925;52.136;5.420;2023-12-29T03:09:28;100703.41;;;9.05;100.00
72061;BME280;59925;52.136;5.420;2023-12-29T03:11:55;100692.44;;;9.02;100.00
72061;BME280;59925;52.136;5.420;2023-12-29T03:14:22;100693.75;;;8.94;100.00
72061;BME280;59925;52.136;5.420;2023-12-29T03:16:48;100695.09;;;8.92;100.00
72061;BME280;59925;52.136;5.420;2023-12-29T03:19:15;100699.34;;;8.87;100.00
72061;BME280;59925;52.136;5.420;2023-12-29T03:21:41;100704.41;;;8.84;100.00
72061;BME280;59925;52.136;5.420;2023-12-29T03:24:08;100702.53;;;8.84;100.00
72061;BME280;59925;52.136;5.420;2023-12-29T03:26:35;100709.50;;;8.85;100.00
72061;BME280;59925;52.136;5.420;2023-12-29T03:29:01;100705.22;;;8.84;100.00
72061;BME280;59925;52.136;5.420;2023-12-29T03:31:28;100707.88;;;8.79;100.00
72061;BME280;59925;52.136;5.420;2023-12-29T03:33:55;100704.13;;;8.80;100.00
72061;BME280;59925;52.136;5.420;2023-12-29T03:36:22;100688.84;;;8.76;100.00
72061;BME280;59925;52.136;5.420;2023-12-29T03:38:48;100697.16;;;8.74;100.00
72061;BME280;59925;52.136;5.420;2023-12-29T03:41:15;100686.97;;;8.71;100.00
72061;BME280;59925;52.136;5.420;2023-12-29T03:43:41;100697.38;;;8.67;100.00
72061;BME280;59925;52.136;5.420;2023-12-29T03:46:18;100696.56;;;8.62;100.00
72061;BME280;59925;52.136;5.420;2023-12-29T03:48:45;100704.31;;;8.63;100.00
72061;BME280;59925;52.136;5.420;2023-12-29T03:51:13;100694.16;;;8.65;100.00
72061;BME280;59925;52.136;5.420;2023-12-29T03:53:40;100691.75;;;8.64;100.00
72061;BME280;59925;52.136;5.420;2023-12-29T03:56:08;100684.25;;;8.61;100.00
72061;BME280;59925;52.136;5.420;2023-12-29T03:58:35;100674.34;;;8.61;100.00
72061;BME280;59925;52.136;5.420;2023-12-29T04:01:02;100681.88;;;8.64;100.00
72061;BME280;59925;52.136;5.420;2023-12-29T04:03:28;100673.34;;;8.67;100.00
72061;BME280;59925;52.136;5.420;2023-12-29T04:05:55;100686.41;;;8.69;100.00
72061;BME280;59925;52.136;5.420;2023-12-29T04:08:21;100684.56;;;8.74;100.00
72061;BME280;59925;52.136;5.420;2023-12-29T04:10:48;100667.75;;;8.74;100.00
72061;BME280;59925;52.136;5.420;2023-12-29T04:13:15;100670.09;;;8.65;100.00
72061;BME280;59925;52.136;5.420;2023-12-29T04:15:42;100659.41;;;8.60;100.00
72061;BME280;59925;52.136;5.420;2023-12-29T04:18:08;100664.75;;;8.60;100.00
72061;BME280;59925;52.136;5.420;2023-12-29T04:20:35;100666.06;;;8.57;100.00
72061;BME280;59925;52.136;5.420;2023-12-29T04:23:02;100676.50;;;8.59;100.00
72061;BME280;59925;52.136;5.420;2023-12-29T04:25:29;100669.84;;;8.62;100.00
72061;BME280;59925;52.136;5.420;2023-12-29T04:27:55;100664.75;;;8.65;100.00
72061;BME280;59925;52.136;5.420;2023-12-29T04:30:22;100664.50;;;8.67;100.00
72061;BME280;59925;52.136;5.420;2023-12-29T04:32:49;100669.59;;;8.68;100.00
72061;BME280;59925;52.136;5.420;2023-12-29T04:35:15;100659.44;;;8.70;100.00
72061;BME280;59925;52.136;5.420;2023-12-29T04:37:44;100667.19;;;8.72;100.00
72061;BME280;59925;52.136;5.420;2023-12-29T04:40:11;100674.16;;;8.73;100.00
72061;BME280;59925;52.136;5.420;2023-12-29T04:42:38;100673.88;;;8.74;100.00
72061;BME280;59925;52.136;5.420;2023-12-29T04:45:05;100675.81;;;8.79;100.00
72061;BME280;59925;52.136;5.420;2023-12-29T04:47:32;100688.06;;;8.80;100.00
72061;BME280;59925;52.136;5.420;2023-12-29T04:49:59;100677.13;;;8.82;100.00
72061;BME280;59925;52.136;5.420;2023-12-29T04:52:26;100669.66;;;8.84;100.00
72061;BME280;59925;52.136;5.420;2023-12-29T04:54:52;100655.75;;;8.87;100.00
72061;BME280;59925;52.136;5.420;2023-12-29T04:57:19;100656.84;;;8.91;100.00
72061;BME280;59925;52.136;5.420;2023-12-29T04:59:46;100659.78;;;8.89;100.00
72061;BME280;59925;52.136;5.420;2023-12-29T05:02:12;100662.72;;;8.88;100.00
72061;BME280;59925;52.136;5.420;2023-12-29T05:04:39;100651.50;;;8.91;100.00
72061;BME280;59925;52.136;5.420;2023-12-29T05:07:08;100658.19;;;8.88;100.00
72061;BME280;59925;52.136;5.420;2023-12-29T05:09:35;100658.47;;;8.97;100.00
72061;BME280;59925;52.136;5.420;2023-12-29T05:12:02;100656.59;;;8.98;100.00
72061;BME280;59925;52.136;5.420;2023-12-29T05:14:29;100644.28;;;8.97;100.00
72061;BME280;59925;52.136;5.420;2023-12-29T05:16:55;100656.31;;;8.94;100.00
72061;BME280;59925;52.136;5.420;2023-12-29T05:19:22;100662.75;;;8.93;100.00
72061;BME280;59925;52.136;5.420;2023-12-29T05:21:49;100650.72;;;8.96;100.00
72061;BME280;59925;52.136;5.420;2023-12-29T05:24:18;100657.94;;;8.95;100.00
72061;BME280;59925;52.136;5.420;2023-12-29T05:26:45;100661.94;;;8.98;100.00
72061;BME280;59925;52.136;5.420;2023-12-29T05:29:13;100656.09;;;9.01;100.00
72061;BME280;59925;52.136;5.420;2023-12-29T05:31:40;100659.03;;;8.99;100.00
72061;BME280;59925;52.136;5.420;2023-12-29T05:34:07;100676.94;;;8.99;100.00
72061;BME280;59925;52.136;5.420;2023-12-29T05:36:37;100670.78;;;9.03;100.00
72061;BME280;59925;52.136;5.420;2023-12-29T05:39:04;100665.97;;;9.05;100.00
72061;BME280;59925;52.136;5.420;2023-12-29T05:41:30;100664.41;;;9.10;100.00
72061;BME280;59925;52.136;5.420;2023-12-29T05:43:57;100658.22;;;9.09;100.00
72061;BME280;59925;52.136;5.420;2023-12-29T05:46:24;100663.34;;;9.11;100.00
72061;BME280;59925;52.136;5.420;2023-12-29T05:48:51;100658.50;;;9.08;100.00
72061;BME280;59925;52.136;5.420;2023-12-29T05:51:19;100656.91;;;9.07;100.00
72061;BME280;59925;52.136;5.420;2023-12-29T05:53:46;100662.75;;;9.03;100.00
72061;BME280;59925;52.136;5.420;2023-12-29T05:56:13;100660.91;;;9.04;100.00
72061;BME280;59925;52.136;5.420;2023-12-29T05:58:43;100660.09;;;9.03;100.00
72061;BME280;59925;52.136;5.420;2023-12-29T06:01:10;100660.63;;;9.05;100.00
72061;BME280;59925;52.136;5.420;2023-12-29T06:03:37;100651.81;;;9.00;100.00
72061;BME280;59925;52.136;5.420;2023-12-29T06:06:04;100655.00;;;8.97;100.00
72061;BME280;59925;52.136;5.420;2023-12-29T06:08:31;100655.00;;;8.97;100.00
72061;BME280;59925;52.136;5.420;2023-12-29T06:10:57;100658.22;;;8.99;100.00
72061;BME280;59925;52.136;5.420;2023-12-29T06:13:24;100656.09;;;9.01;100.00
72061;BME280;59925;52.136;5.420;2023-12-29T06:15:50;100661.94;;;8.98;100.00
72061;BME280;59925;52.136;5.420;2023-12-29T06:18:17;100668.63;;;9.00;100.00
72061;BME280;59925;52.136;5.420;2023-12-29T06:20:44;100667.03;;;9.04;100.00
72061;BME280;59925;52.136;5.420;2023-12-29T06:23:10;100657.97;;;9.05;100.00
72061;BME280;59925;52.136;5.420;2023-12-29T06:25:37;100667.59;;;9.07;100.00
72061;BME280;59925;52.136;5.420;2023-12-29T06:28:06;100664.91;;;9.07;100.00
72061;BME280;59925;52.136;5.420;2023-12-29T06:30:33;100671.06;;;9.07;100.00
72061;BME280;59925;52.136;5.420;2023-12-29T06:33:01;100678.28;;;9.07;100.00
72061;BME280;59925;52.136;5.420;2023-12-29T06:35:28;100667.06;;;9.10;100.00
72061;BME280;59925;52.136;5.420;2023-12-29T06:37:55;100662.78;;;9.09;100.00
72061;BME280;59925;52.136;5.420;2023-12-29T06:40:21;100659.31;;;9.13;100.00
72061;BME280;59925;52.136;5.420;2023-12-29T06:42:48;100671.91;;;9.18;100.00
72061;BME280;59925;52.136;5.420;2023-12-29T06:45:15;100666.03;;;9.21;100.00
72061;BME280;59925;52.136;5.420;2023-12-29T06:47:42;100668.16;;;9.19;100.00
72061;BME280;59925;52.136;5.420;2023-12-29T06:50:09;100657.97;;;9.16;100.00
72061;BME280;59925;52.136;5.420;2023-12-29T06:52:39;100660.66;;;9.16;100.00
72061;BME280;59925;52.136;5.420;2023-12-29T06:55:06;100659.31;;;9.13;100.00
72061;BME280;59925;52.136;5.420;2023-12-29T06:57:34;100659.03;;;9.15;100.00
72061;BME280;59925;52.136;5.420;2023-12-29T07:00:01;100652.91;;;9.14;100.00
72061;BME280;59925;52.136;5.420;2023-12-29T07:02:28;100660.94;;;9.14;100.00
72061;BME280;59925;52.136;5.420;2023-12-29T07:04:54;100659.59;;;9.17;100.00
72061;BME280;59925;52.136;5.420;2023-12-29T07:07:21;100655.84;;;9.18;100.00
72061;BME280;59925;52.136;5.420;2023-12-29T07:09:48;100658.53;;;9.18;100.00
72061;BME280;59925;52.136;5.420;2023-12-29T07:12:14;100652.63;;;9.16;100.00
72061;BME280;59925;52.136;5.420;2023-12-29T07:14:42;100667.63;;;9.12;100.00
72061;BME280;59925;52.136;5.420;2023-12-29T07:17:09;100669.75;;;9.15;100.00
72061;BME280;59925;52.136;5.420;2023-12-29T07:19:35;100655.59;;;9.14;100.00
72061;BME280;59925;52.136;5.420;2023-12-29T07:22:05;100667.63;;;9.12;100.00
72061;BME280;59925;52.136;5.420;2023-12-29T07:24:35;100656.09;;;9.11;100.00
72061;BME280;59925;52.136;5.420;2023-12-29T07:27:03;100662.78;;;9.09;100.00
72061;BME280;59925;52.136;5.420;2023-12-29T07:29:30;100668.13;;;9.09;100.00
72061;BME280;59925;52.136;5.420;2023-12-29T07:31:57;100668.66;;;9.05;100.00
72061;BME280;59925;52.136;5.420;2023-12-29T07:34:23;100665.47;;;9.09;100.00
72061;BME280;59925;52.136;5.420;2023-12-29T07:36:51;100682.56;;;9.08;100.00
72061;BME280;59925;52.136;5.420;2023-12-29T07:39:18;100676.16;;;9.09;100.00
72061;BME280;59925;52.136;5.420;2023-12-29T07:41:45;100678.84;;;9.09;100.00
72061;BME280;59925;52.136;5.420;2023-12-29T07:44:11;100662.22;;;9.01;100.00
72061;BME280;59925;52.136;5.420;2023-12-29T07:46:40;100664.09;;;9.01;100.00
72061;BME280;59925;52.136;5.420;2023-12-29T07:49:07;100665.16;;;9.00;100.00
72061;BME280;59925;52.136;5.420;2023-12-29T07:51:34;100661.94;;;8.98;100.00
72061;BME280;59925;52.136;5.420;2023-12-29T07:54:01;100677.19;;;8.97;100.00
72061;BME280;59925;52.136;5.420;2023-12-29T07:56:28;100660.09;;;8.98;100.00
72061;BME280;59925;52.136;5.420;2023-12-29T07:58:54;100682.78;;;8.96;100.00
72061;BME280;59925;52.136;5.420;2023-12-29T08:01:21;100677.19;;;8.97;100.00
72061;BME280;59925;52.136;5.420;2023-12-29T08:03:47;100686.53;;;8.95;100.00
72061;BME280;59925;52.136;5.420;2023-12-29T08:06:14;100691.63;;;8.96;100.00
72061;BME280;59925;52.136;5.420;2023-12-29T08:08:41;100695.91;;;8.97;100.00
72061;BME280;59925;52.136;5.420;2023-12-29T08:11:17;100690.03;;;9.00;100.00
72061;BME280;59925;52.136;5.420;2023-12-29T08:13:47;100676.13;;;9.03;100.00
72061;BME280;59925;52.136;5.420;2023-12-29T08:16:15;100685.53;;;9.06;100.00
72061;BME280;59925;52.136;5.420;2023-12-29T08:18:43;100666.53;;;9.08;100.00
72061;BME280;59925;52.136;5.420;2023-12-29T08:21:16;100682.56;;;9.08;100.00
72061;BME280;59925;52.136;5.420;2023-12-29T08:23:45;100678.00;;;9.08;100.00
72061;BME280;59925;52.136;5.420;2023-12-29T08:26:12;100684.97;;;9.09;100.00
72061;BME280;59925;52.136;5.420;2023-12-29T08:28:39;100702.91;;;9.09;100.00
72061;BME280;59925;52.136;5.420;2023-12-29T08:31:07;100690.59;;;9.08;100.00
72061;BME280;59925;52.136;5.420;2023-12-29T08:33:34;100681.47;;;9.03;100.00
72061;BME280;59925;52.136;5.420;2023-12-29T08:36:04;100698.06;;;9.05;100.00
72061;BME280;59925;52.136;5.420;2023-12-29T08:38:31;100697.00;;;9.07;100.00
72061;BME280;59925;52.136;5.420;2023-12-29T08:40:59;100694.84;;;9.03;100.00
72061;BME280;59925;52.136;5.420;2023-12-29T08:43:26;100686.31;;;9.07;100.00
72061;BME280;59925;52.136;5.420;2023-12-29T08:45:52;100691.69;;;9.12;100.00
72061;BME280;59925;52.136;5.420;2023-12-29T08:48:20;100690.63;;;9.13;100.00
72061;BME280;59925;52.136;5.420;2023-12-29T08:50:47;100679.13;;;9.17;100.00
72061;BME280;59925;52.136;5.420;2023-12-29T08:53:13;100678.84;;;9.19;100.00
72061;BME280;59925;52.136;5.420;2023-12-29T08:55:40;100696.50;;;9.20;100.00
72061;BME280;59925;52.136;5.420;2023-12-29T08:58:07;100695.44;;;9.16;100.00
72061;BME280;59925;52.136;5.420;2023-12-29T09:00:33;100694.06;;;9.08;100.00
72061;BME280;59925;52.136;5.420;2023-12-29T09:03:00;100680.69;;;9.03;100.00
72061;BME280;59925;52.136;5.420;2023-12-29T09:05:27;100689.22;;;9.00;100.00
72061;BME280;59925;52.136;5.420;2023-12-29T09:07:53;100684.41;;;8.97;100.00
72061;BME280;59925;52.136;5.420;2023-12-29T09:10:20;100685.75;;;8.94;100.00
72061;BME280;59925;52.136;5.420;2023-12-29T09:12:49;100692.69;;;8.95;100.00
72061;BME280;59925;52.136;5.420;2023-12-29T09:15:16;100690.28;;;8.99;100.00
72061;BME280;59925;52.136;5.420;2023-12-29T09:17:43;100679.09;;;9.02;100.00
72061;BME280;59925;52.136;5.420;2023-12-29T09:20:10;100684.97;;;9.04;100.00
72061;BME280;59925;52.136;5.420;2023-12-29T09:22:37;100683.63;;;9.07;100.00
72061;BME280;59925;52.136;5.420;2023-12-29T09:25:04;100694.38;;;9.12;100.00
72061;BME280;59925;52.136;5.420;2023-12-29T09:27:31;100692.75;;;9.16;100.00
72061;BME280;59925;52.136;5.420;2023-12-29T09:29:58;100698.13;;;9.21;100.00
72061;BME280;59925;52.136;5.420;2023-12-29T09:32:24;100699.72;;;9.22;100.00
72061;BME280;59925;52.136;5.420;2023-12-29T09:34:51;100706.41;;;9.25;100.00
72061;BME280;59925;52.136;5.420;2023-12-29T09:37:18;100717.38;;;9.28;100.00
72061;BME280;59925;52.136;5.420;2023-12-29T09:39:44;100712.59;;;9.35;100.00
72061;BME280;59925;52.136;5.420;2023-12-29T09:42:24;100726.00;;;9.46;100.00
72061;BME280;59925;52.136;5.420;2023-12-29T09:44:54;100714.25;;;9.52;100.00
72061;BME280;59925;52.136;5.420;2023-12-29T09:47:25;100705.69;;;9.55;100.00
72061;BME280;59925;52.136;5.420;2023-12-29T09:49:52;100720.41;;;9.58;100.00
72061;BME280;59925;52.136;5.420;2023-12-29T09:52:21;100709.16;;;9.61;100.00
72061;BME280;59925;52.136;5.420;2023-12-29T09:54:51;100720.44;;;9.68;100.00
72061;BME280;59925;52.136;5.420;2023-12-29T09:57:18;100709.72;;;9.73;100.00
72061;BME280;59925;52.136;5.420;2023-12-29T09:59:48;100711.59;;;9.78;100.00
72061;BME280;59925;52.136;5.420;2023-12-29T10:02:15;100718.56;;;9.79;100.00
72061;BME280;59925;52.136;5.420;2023-12-29T10:04:44;100715.34;;;9.77;100.00
72061;BME280;59925;52.136;5.420;2023-12-29T10:07:17;100718.28;;;9.75;100.00
72061;BME280;59925;52.136;5.420;2023-12-29T10:09:46;100711.84;;;9.76;100.00
72061;BME280;59925;52.136;5.420;2023-12-29T10:12:14;100710.53;;;9.79;100.00
72061;BME280;59925;52.136;5.420;2023-12-29T10:18:04;100711.59;;;9.88;100.00
72061;BME280;59925;52.136;5.420;2023-12-29T10:20:44;100699.81;;;9.94;100.00
72061;BME280;59925;52.136;5.420;2023-12-29T10:26:01;100725.78;;;10.04;100.00
72061;BME280;59925;52.136;5.420;2023-12-29T10:28:28;100718.03;;;10.03;100.00
72061;BME280;59925;52.136;5.420;2023-12-29T10:30:55;100720.19;;;10.01;100.00
72061;BME280;59925;52.136;5.420;2023-12-29T10:33:21;100719.09;;;10.02;100.00
72061;BME280;59925;52.136;5.420;2023-12-29T10:35:59;100713.22;;;10.05;100.00
72061;BME280;59925;52.136;5.420;2023-12-29T10:38:30;100712.94;;;10.11;100.00
72061;BME280;59925;52.136;5.420;2023-12-29T10:41:18;100722.03;;;10.16;100.00
72061;BME280;59925;52.136;5.420;2023-12-29T10:43:46;100714.00;;;10.16;100.00
72061;BME280;59925;52.136;5.420;2023-12-29T10:46:18;100717.22;;;10.18;100.00
72061;BME280;59925;52.136;5.420;2023-12-29T10:48:45;100723.38;;;10.18;100.00
72061;BME280;59925;52.136;5.420;2023-12-29T10:51:12;100719.59;;;10.19;100.00
72061;BME280;59925;52.136;5.420;2023-12-29T10:53:39;100722.03;;;10.21;100.00
72061;BME280;59925;52.136;5.420;2023-12-29T10:56:17;100730.63;;;10.23;100.00
72061;BME280;59925;52.136;5.420;2023-12-29T10:59:00;100733.28;;;10.23;100.00
72061;BME280;59925;52.136;5.420;2023-12-29T11:01:27;100756.31;;;10.19;100.00
72061;BME280;59925;52.136;5.420;2023-12-29T11:03:58;100752.84;;;10.13;100.00
72061;BME280;59925;52.136;5.420;2023-12-29T11:06:27;100738.38;;;10.09;100.00
72061;BME280;59925;52.136;5.420;2023-12-29T11:08:56;100736.50;;;10.09;100.00
72061;BME280;59925;52.136;5.420;2023-12-29T11:11:23;100754.44;;;10.09;100.00
72061;BME280;59925;52.136;5.420;2023-12-29T11:13:50;100741.06;;;10.09;100.00
72061;BME280;59925;52.136;5.420;2023-12-29T11:16:17;100749.34;;;10.12;100.00
72061;BME280;59925;52.136;5.420;2023-12-29T11:18:49;100749.63;;;10.16;100.00
72061;BME280;59925;52.136;5.420;2023-12-29T11:21:19;100737.28;;;10.20;100.00
72061;BME280;59925;52.136;5.420;2023-12-29T11:23:47;100747.75;;;10.27;100.00
72061;BME280;59925;52.136;5.420;2023-12-29T11:26:15;100746.41;;;10.30;100.00
72061;BME280;59925;52.136;5.420;2023-12-29T11:28:41;100752.84;;;10.39;100.00
72061;BME280;59925;52.136;5.420;2023-12-29T11:31:09;100753.38;;;10.46;100.00
72061;BME280;59925;52.136;5.420;2023-12-29T11:33:40;100754.72;;;10.49;100.00
72061;BME280;59925;52.136;5.420;2023-12-29T11:36:12;100754.19;;;10.52;100.00
72061;BME280;59925;52.136;5.420;2023-12-29T11:42:27;100756.84;;;10.57;100.00
72061;BME280;59925;52.136;5.420;2023-12-29T11:44:57;100753.63;;;10.60;100.00
72061;BME280;59925;52.136;5.420;2023-12-29T11:47:37;100752.81;;;10.60;100.00
72061;BME280;59925;52.136;5.420;2023-12-29T11:50:04;100755.50;;;10.65;100.00
72061;BME280;59925;52.136;5.420;2023-12-29T11:52:39;100753.88;;;10.64;100.00
72061;BME280;59925;52.136;5.420;2023-12-29T11:55:15;100746.38;;;10.66;100.00
72061;BME280;59925;52.136;5.420;2023-12-29T11:57:44;100744.22;;;10.68;100.00
72061;BME280;59925;52.136;5.420;2023-12-29T12:00:11;100747.69;;;10.68;100.00
72061;BME280;59925;52.136;5.420;2023-12-29T12:02:39;100736.97;;;10.68;100.00
72061;BME280;59925;52.136;5.420;2023-12-29T12:05:09;100746.09;;;10.72;100.00
72061;BME280;59925;52.136;5.420;2023-12-29T12:12:58;100752.00;;;10.69;100.00
72061;BME280;59925;52.136;5.420;2023-12-29T12:18:03;100757.06;;;10.76;100.00
72061;BME280;59925;52.136;5.420;2023-12-29T12:20:35;100747.16;;;10.71;99.46
72061;BME280;59925;52.136;5.420;2023-12-29T12:23:10;100744.78;;;10.70;98.50
72061;BME280;59925;52.136;5.420;2023-12-29T12:25:39;100742.09;;;10.70;98.71
72061;BME280;59925;52.136;5.420;2023-12-29T12:28:07;100740.47;;;10.69;99.11
72061;BME280;59925;52.136;5.420;2023-12-29T12:30:34;100729.19;;;10.72;98.89
72061;BME280;59925;52.136;5.420;2023-12-29T12:33:02;100730.78;;;10.78;98.50
72061;BME280;59925;52.136;5.420;2023-12-29T12:35:31;100724.63;;;10.78;98.38
72061;BME280;59925;52.136;5.420;2023-12-29T12:38:12;100727.81;;;10.80;98.96
72061;BME280;59925;52.136;5.420;2023-12-29T12:40:39;100727.28;;;10.83;99.03
72061;BME280;59925;52.136;5.420;2023-12-29T12:43:07;100727.28;;;10.88;99.14
72061;BME280;59925;52.136;5.420;2023-12-29T12:45:39;100728.06;;;10.88;98.48
72061;BME280;59925;52.136;5.420;2023-12-29T12:51:04;100721.38;;;10.81;97.77
72061;BME280;59925;52.136;5.420;2023-12-29T12:53:30;100719.53;;;10.76;97.84
72061;BME280;59925;52.136;5.420;2023-12-29T12:55:57;100725.16;;;10.80;98.76
72061;BME280;59925;52.136;5.420;2023-12-29T12:58:24;100712.25;;;10.87;99.04
72061;BME280;59925;52.136;5.420;2023-12-29T13:00:57;100717.88;;;10.91;98.76
72061;BME280;59925;52.136;5.420;2023-12-29T13:03:24;100716.00;;;10.91;99.47
72061;BME280;59925;52.136;5.420;2023-12-29T13:05:51;100714.66;;;10.88;99.53
72061;BME280;59925;52.136;5.420;2023-12-29T13:08:18;100711.19;;;10.83;98.55
72061;BME280;59925;52.136;5.420;2023-12-29T13:10:59;100718.69;;;10.86;98.68
72061;BME280;59925;52.136;5.420;2023-12-29T13:13:41;100724.59;;;10.83;98.32